Time;durP1;ratioP1;P1;durP2;ratioP2;P2;SDS_P1;SDS_P2;PMS_P1;PMS_P2;Temp;Humidity;BMP_temperature;BMP_pressure;BME280_temperature;BME280_humidity;BME280_pressure;Samples;Min_cycle;Max_cycle;Signal;HPM_P1;HPM_P2
2023/05/06 00:00:59;;;;;;;10.50;6.20;;;;;;;9.00;55.44;100763.36;131525;1248;107494;-79
2023/05/06 00:04:05;;;;;;;7.90;5.20;;;;;;;8.99;55.80;100760.12;131508;1251;107493;-79
2023/05/06 00:07:11;;;;;;;6.80;4.40;;;;;;;8.95;56.08;100767.15;131534;1259;108428;-79
2023/05/06 00:10:17;;;;;;;6.90;4.30;;;;;;;8.90;55.79;100775.73;131525;1248;107225;-76
2023/05/06 00:13:22;;;;;;;6.70;4.00;;;;;;;8.86;56.06;100776.98;131564;1248;107539;-79
2023/05/06 00:16:28;;;;;;;8.50;4.30;;;;;;;8.84;55.93;100780.52;131521;1250;107398;-77
2023/05/06 00:19:33;;;;;;;7.60;4.60;;;;;;;8.83;56.08;100781.13;131495;1250;107477;-79
2023/05/06 00:22:39;;;;;;;7.30;4.30;;;;;;;8.82;55.90;100775.92;131504;1248;107414;-78
2023/05/06 00:25:44;;;;;;;7.40;4.10;;;;;;;8.80;56.07;100775.70;131514;1251;107472;-79
2023/05/06 00:28:49;;;;;;;6.70;4.20;;;;;;;8.79;56.11;100775.59;131519;1251;106547;-78
2023/05/06 00:31:55;;;;;;;8.30;4.70;;;;;;;8.78;56.24;100781.35;131540;1250;107520;-79
2023/05/06 00:35:00;;;;;;;6.60;3.80;;;;;;;8.77;56.31;100785.38;131544;1251;107350;-79
2023/05/06 00:38:11;;;;;;;5.60;3.80;;;;;;;8.75;56.62;100787.55;131557;1260;107586;-78
2023/05/06 00:41:17;;;;;;;6.00;4.00;;;;;;;8.73;56.58;100790.18;131560;1251;106483;-78
2023/05/06 00:44:22;;;;;;;7.40;3.80;;;;;;;8.72;56.60;100792.33;131513;1247;107504;-77
2023/05/06 00:47:28;;;;;;;6.90;4.10;;;;;;;8.72;56.44;100792.17;131381;1251;107544;-78
2023/05/06 00:50:34;;;;;;;7.50;3.60;;;;;;;8.70;56.53;100793.73;131476;1250;107327;-79
2023/05/06 00:53:40;;;;;;;5.70;3.80;;;;;;;8.68;56.77;100797.80;131534;1251;107518;-79
2023/05/06 00:56:46;;;;;;;6.80;3.40;;;;;;;8.67;56.80;100798.79;131556;1251;107517;-79
2023/05/06 00:59:52;;;;;;;5.60;3.60;;;;;;;8.65;56.78;100794.83;131541;1248;107416;-79
2023/05/06 01:02:57;;;;;;;7.90;4.00;;;;;;;8.64;57.02;100801.11;131236;1253;107597;-79
2023/05/06 01:06:12;;;;;;;8.90;4.20;;;;;;;8.63;57.06;100797.84;131490;1260;107283;-77
2023/05/06 01:09:24;;;;;;;6.80;4.00;;;;;;;8.62;57.22;100791.41;131508;1251;106677;-77
2023/05/06 01:12:33;;;;;;;7.30;3.90;;;;;;;8.58;57.16;100787.61;131476;1251;107476;-79
2023/05/06 01:15:44;;;;;;;5.70;3.60;;;;;;;8.58;57.24;100790.46;131553;1248;107364;-79
2023/05/06 01:18:52;;;;;;;8.40;4.00;;;;;;;8.57;57.53;100790.73;131401;1251;107402;-77
2023/05/06 01:22:01;;;;;;;7.90;3.90;;;;;;;8.56;57.40;100789.92;131566;1250;107472;-78
2023/05/06 01:25:07;;;;;;;6.40;3.60;;;;;;;8.56;57.47;100799.70;131549;1262;107542;-78
2023/05/06 01:28:13;;;;;;;4.80;3.40;;;;;;;8.54;57.66;100799.10;131530;1260;107128;-79
2023/05/06 01:31:26;;;;;;;6.50;3.80;;;;;;;8.55;57.68;100797.48;131483;1251;107510;-78
2023/05/06 01:34:43;;;;;;;8.10;4.10;;;;;;;8.57;57.64;100800.89;131474;1250;107337;-78
2023/05/06 01:37:56;;;;;;;9.90;4.30;;;;;;;8.57;57.55;100800.45;131463;1248;107501;-78
2023/05/06 01:41:03;;;;;;;7.80;4.40;;;;;;;8.58;57.73;100791.04;131463;1248;107325;-78
2023/05/06 01:44:11;;;;;;;8.20;4.20;;;;;;;8.58;57.88;100787.64;131502;1248;107451;-78
2023/05/06 01:47:17;;;;;;;7.20;4.40;;;;;;;8.58;58.00;100781.42;131278;1248;107227;-78
2023/05/06 01:50:23;;;;;;;7.20;4.20;;;;;;;8.58;57.84;100781.95;131235;1248;107563;-77
2023/05/06 01:53:28;;;;;;;10.50;4.40;;;;;;;8.58;58.11;100772.55;131534;1260;108104;-78
2023/05/06 01:56:34;;;;;;;7.20;4.10;;;;;;;8.57;58.12;100773.90;131486;1248;107586;-78
2023/05/06 01:59:39;;;;;;;6.90;3.70;;;;;;;8.57;58.26;100764.88;131237;1253;105543;-78
2023/05/06 02:02:46;;;;;;;6.70;3.60;;;;;;;8.57;58.45;100760.79;131479;1257;107478;-78
2023/05/06 02:05:52;;;;;;;6.10;3.80;;;;;;;8.57;58.34;100756.13;131525;1255;107344;-79
2023/05/06 02:08:59;;;;;;;6.50;3.60;;;;;;;8.59;58.68;100755.98;131498;1248;107350;-78
2023/05/06 02:12:05;;;;;;;5.30;3.30;;;;;;;8.59;58.22;100756.86;131510;1248;107217;-78
2023/05/06 02:15:12;;;;;;;6.60;4.00;;;;;;;8.60;58.28;100760.71;131513;1248;107604;-78
2023/05/06 02:18:18;;;;;;;5.90;4.10;;;;;;;8.61;58.54;100756.88;131479;1270;107543;-78
2023/05/06 02:21:24;;;;;;;6.00;3.70;;;;;;;8.62;58.60;100757.70;131493;1250;107638;-78
2023/05/06 02:24:29;;;;;;;7.60;3.80;;;;;;;8.63;58.51;100758.15;131227;1263;107244;-79
2023/05/06 02:27:35;;;;;;;5.40;3.40;;;;;;;8.65;58.30;100759.23;131486;1255;107511;-79
2023/05/06 02:30:40;;;;;;;4.20;3.20;;;;;;;8.68;58.40;100765.77;131436;1248;107616;-79
2023/05/06 02:33:46;;;;;;;4.60;3.10;;;;;;;8.68;58.54;100763.95;131468;1250;107499;-78
2023/05/06 02:36:52;;;;;;;5.00;3.50;;;;;;;8.69;58.77;100762.99;131497;1248;107225;-79
2023/05/06 02:39:57;;;;;;;4.60;3.30;;;;;;;8.70;58.83;100768.38;131455;1251;105537;-79
2023/05/06 02:43:03;;;;;;;6.00;4.00;;;;;;;8.71;58.68;100773.64;131457;1251;107165;-79
2023/05/06 02:46:08;;;;;;;4.60;3.40;;;;;;;8.73;58.81;100774.67;131498;1250;107474;-78
2023/05/06 02:49:14;;;;;;;7.60;3.50;;;;;;;8.76;58.72;100775.20;131458;1248;107234;-79
2023/05/06 02:52:19;;;;;;;4.90;3.20;;;;;;;8.76;58.86;100775.34;131485;1247;107459;-78
2023/05/06 02:55:25;;;;;;;7.10;3.70;;;;;;;8.77;58.96;100774.36;131462;1260;106229;-76
2023/05/06 02:58:31;;;;;;;6.30;3.40;;;;;;;8.81;59.05;100772.63;131190;1251;107514;-77
2023/05/06 03:01:36;;;;;;;5.30;3.40;;;;;;;8.83;59.16;100767.07;131521;1260;107387;-78
2023/05/06 03:04:42;;;;;;;6.20;3.80;;;;;;;8.85;59.03;100770.66;131466;1248;107351;-78
2023/05/06 03:07:47;;;;;;;7.20;3.50;;;;;;;8.87;59.10;100773.54;131198;1249;107313;-78
2023/05/06 03:10:53;;;;;;;4.90;3.70;;;;;;;8.88;59.20;100772.23;131469;1250;107250;-79
2023/05/06 03:13:59;;;;;;;5.70;3.90;;;;;;;8.89;59.26;100773.56;131247;1248;107359;-79
2023/05/06 03:17:04;;;;;;;4.70;3.40;;;;;;;8.90;59.25;100769.88;131510;1248;107345;-79
2023/05/06 03:20:12;;;;;;;6.50;3.90;;;;;;;8.92;59.34;100766.15;131423;1248;107344;-77
2023/05/06 03:23:20;;;;;;;4.90;3.50;;;;;;;8.93;59.57;100762.23;131526;1250;107407;-79
2023/05/06 03:26:26;;;;;;;4.80;3.20;;;;;;;8.93;59.49;100760.09;131387;1251;107373;-79
2023/05/06 03:29:32;;;;;;;5.10;3.50;;;;;;;8.93;59.61;100756.35;131511;1248;107252;-78
2023/05/06 03:32:38;;;;;;;5.30;3.70;;;;;;;8.94;59.48;100755.57;131306;1253;107206;-77
2023/05/06 03:35:46;;;;;;;6.50;3.50;;;;;;;8.94;59.56;100752.86;131542;1248;107322;-77
2023/05/06 03:38:52;;;;;;;5.10;3.40;;;;;;;8.95;59.82;100748.35;131495;1254;106257;-78
2023/05/06 03:41:57;;;;;;;5.90;3.40;;;;;;;8.95;59.43;100749.95;131410;1254;107350;-77
2023/05/06 03:45:05;;;;;;;6.70;3.70;;;;;;;8.95;59.76;100743.39;131528;1248;107350;-77
2023/05/06 03:48:11;;;;;;;11.20;5.10;;;;;;;8.96;59.90;100744.19;131480;1250;107377;-79
2023/05/06 03:51:18;;;;;;;18.20;8.20;;;;;;;8.96;59.77;100737.63;131474;1248;107354;-77
2023/05/06 03:54:25;;;;;;;17.10;8.40;;;;;;;8.95;59.81;100736.62;131456;1250;107491;-78
2023/05/06 03:57:30;;;;;;;18.50;8.60;;;;;;;8.94;60.06;100739.23;131474;1248;107360;-79
2023/05/06 04:00:36;;;;;;;9.90;5.90;;;;;;;8.93;60.00;100740.55;131520;1248;107372;-78
2023/05/06 04:03:42;;;;;;;6.10;4.20;;;;;;;8.94;60.16;100744.20;131470;1248;107333;-78
2023/05/06 04:06:48;;;;;;;11.20;5.10;;;;;;;8.96;59.73;100743.09;131464;1262;105755;-78
2023/05/06 04:09:53;;;;;;;11.20;6.00;;;;;;;8.98;59.83;100744.00;131266;1250;107527;-78
2023/05/06 04:12:59;;;;;;;8.90;6.30;;;;;;;9.01;59.92;100747.98;131537;1248;107384;-78
2023/05/06 04:16:09;;;;;;;7.50;4.50;;;;;;;9.04;59.99;100743.85;131505;1248;107341;-77
2023/05/06 04:19:18;;;;;;;6.50;4.20;;;;;;;9.08;59.60;100743.55;131591;1250;107827;-77
2023/05/06 04:22:24;;;;;;;9.00;5.00;;;;;;;9.14;59.51;100746.39;131515;1250;107438;-77
2023/05/06 04:25:31;;;;;;;6.40;4.10;;;;;;;9.19;59.58;100743.85;131525;1250;107526;-77
2023/05/06 04:28:37;;;;;;;5.80;3.40;;;;;;;9.25;59.41;100739.59;131529;1248;107409;-77
2023/05/06 04:31:43;;;;;;;5.50;3.20;;;;;;;9.32;59.53;100742.35;131419;1254;107204;-77
2023/05/06 04:34:50;;;;;;;5.30;3.30;;;;;;;9.39;59.40;100750.61;131512;1248;107350;-77
2023/05/06 04:37:56;;;;;;;6.80;3.10;;;;;;;9.46;59.48;100757.29;131274;1248;107490;-75
2023/05/06 04:41:05;;;;;;;6.10;3.60;;;;;;;9.51;59.16;100751.59;131542;1250;107351;-77
2023/05/06 04:44:12;;;;;;;6.10;3.80;;;;;;;9.56;59.06;100749.52;131475;1248;107467;-76
2023/05/06 04:47:18;;;;;;;8.50;4.40;;;;;;;9.64;58.88;100749.73;131548;1248;107417;-77
2023/05/06 04:50:26;;;;;;;9.70;4.10;;;;;;;9.69;58.84;100746.08;131521;1248;107215;-76
2023/05/06 04:53:32;;;;;;;5.30;3.30;;;;;;;9.71;58.74;100749.84;131507;1248;107375;-76
2023/05/06 04:56:38;;;;;;;10.90;3.40;;;;;;;9.68;58.85;100741.72;131488;1247;107530;-76
2023/05/06 04:59:44;;;;;;;8.20;4.20;;;;;;;9.69;58.71;100740.44;131496;1248;107267;-76
2023/05/06 05:02:50;;;;;;;5.60;3.60;;;;;;;9.67;58.80;100737.00;131218;1248;107513;-76
2023/05/06 05:05:56;;;;;;;5.70;3.10;;;;;;;9.69;58.95;100736.50;131450;1248;107374;-76
2023/05/06 05:09:02;;;;;;;3.80;2.50;;;;;;;9.71;58.51;100733.29;131533;1250;107357;-76
2023/05/06 05:12:08;;;;;;;3.70;2.70;;;;;;;9.75;58.82;100730.42;131538;1248;107353;-76
2023/05/06 05:15:16;;;;;;;3.50;2.70;;;;;;;9.82;58.47;100724.84;131513;1250;107761;-75
2023/05/06 05:18:23;;;;;;;5.70;3.00;;;;;;;9.93;58.40;100733.65;131394;1250;107499;-76
2023/05/06 05:21:29;;;;;;;5.40;3.00;;;;;;;10.00;58.47;100730.33;131677;1250;107440;-76
2023/05/06 05:24:35;;;;;;;4.30;2.80;;;;;;;10.11;58.07;100727.62;131546;1248;107348;-76
2023/05/06 05:27:41;;;;;;;7.70;3.00;;;;;;;10.19;57.88;100725.92;131459;1248;107490;-76
2023/05/06 05:30:48;;;;;;;6.00;2.70;;;;;;;10.27;57.85;100732.18;131765;1247;107385;-76
2023/05/06 05:34:03;;;;;;;6.00;3.00;;;;;;;10.32;58.16;100730.85;131568;1251;107489;-77
2023/05/06 05:37:11;;;;;;;6.30;2.90;;;;;;;10.42;58.04;100728.73;131711;1248;107365;-76
2023/05/06 05:40:18;;;;;;;3.50;2.70;;;;;;;10.50;57.48;100723.31;131591;1263;106157;-76
2023/05/06 05:43:26;;;;;;;3.90;2.50;;;;;;;10.57;57.27;100718.46;131601;1248;107508;-75
2023/05/06 05:46:32;;;;;;;6.00;2.70;;;;;;;10.60;57.35;100715.84;131354;1250;107545;-75
2023/05/06 05:49:39;;;;;;;4.50;2.40;;;;;;;10.64;57.30;100716.73;131792;1250;107344;-75
2023/05/06 05:52:45;;;;;;;4.30;2.30;;;;;;;10.68;56.96;100715.29;131550;1253;107205;-74
2023/05/06 05:55:51;;;;;;;3.30;2.40;;;;;;;10.68;56.88;100704.08;131491;1248;107739;-74
2023/05/06 05:58:57;;;;;;;5.80;2.80;;;;;;;10.72;56.59;100698.08;131439;1248;107363;-75
2023/05/06 06:02:03;;;;;;;4.50;2.50;;;;;;;10.74;56.68;100696.80;131421;1248;106558;-74
2023/05/06 06:05:10;;;;;;;4.10;2.70;;;;;;;10.77;56.64;100702.02;131478;1259;108616;-74
2023/05/06 06:08:18;;;;;;;4.80;3.20;;;;;;;10.83;56.71;100698.64;131230;1253;105813;-74
2023/05/06 06:11:25;;;;;;;7.60;3.30;;;;;;;10.89;56.51;100699.98;131410;1248;107383;-75
2023/05/06 06:14:31;;;;;;;5.20;3.00;;;;;;;10.94;56.23;100696.44;131467;1247;107484;-75
2023/05/06 06:17:38;;;;;;;5.40;2.70;;;;;;;11.01;56.21;100691.23;131503;1247;107353;-74
2023/05/06 06:20:45;;;;;;;4.00;2.40;;;;;;;11.09;55.83;100687.67;131303;1248;107834;-74
2023/05/06 06:23:52;;;;;;;5.30;3.10;;;;;;;11.15;55.79;100686.46;131402;1248;107163;-73
2023/05/06 06:26:58;;;;;;;4.60;2.80;;;;;;;11.25;55.85;100678.06;131719;1247;107399;-73
2023/05/06 06:30:04;;;;;;;3.60;2.30;;;;;;;11.37;55.68;100682.61;131863;1247;107351;-72
2023/05/06 06:33:10;;;;;;;5.40;2.70;;;;;;;11.51;55.93;100678.42;131516;1248;107501;-72
2023/05/06 06:36:15;;;;;;;4.60;2.40;;;;;;;11.68;55.58;100677.69;131518;1247;107240;-72
2023/05/06 06:39:20;;;;;;;4.60;2.50;;;;;;;11.81;55.33;100675.38;131211;1253;107224;-76
2023/05/06 06:42:26;;;;;;;5.70;2.60;;;;;;;11.88;55.37;100677.34;131484;1250;107511;-72
2023/05/06 06:45:39;;;;;;;3.20;2.20;;;;;;;11.98;54.94;100674.73;131452;1253;107504;-72
2023/05/06 06:48:44;;;;;;;6.30;2.30;;;;;;;12.08;54.81;100674.85;131429;1248;107493;-72
2023/05/06 06:51:50;;;;;;;6.60;2.20;;;;;;;12.18;54.78;100672.21;131442;1250;107366;-72
2023/05/06 06:54:56;;;;;;;4.50;2.80;;;;;;;12.27;54.24;100671.34;131503;1248;107314;-72
2023/05/06 06:58:01;;;;;;;5.40;2.40;;;;;;;12.31;53.88;100667.23;131427;1250;106744;-72
2023/05/06 07:01:07;;;;;;;6.30;2.50;;;;;;;12.36;53.75;100666.34;131457;1251;106939;-72
2023/05/06 07:04:12;;;;;;;4.90;2.70;;;;;;;12.35;53.32;100661.59;131510;1248;107491;-72
2023/05/06 07:07:18;;;;;;;4.20;2.70;;;;;;;12.28;53.28;100659.71;131388;1248;107095;-72
2023/05/06 07:10:24;;;;;;;5.20;2.50;;;;;;;12.25;53.58;100664.31;131518;1250;107490;-72
2023/05/06 07:13:30;;;;;;;8.20;3.20;;;;;;;12.26;53.33;100663.42;131594;1248;107501;-72
2023/05/06 07:16:35;;;;;;;4.70;3.00;;;;;;;12.26;53.46;100658.92;131539;1250;107487;-71
2023/05/06 07:19:41;;;;;;;5.80;3.20;;;;;;;12.27;53.23;100655.43;131493;1248;107495;-73
2023/05/06 07:22:46;;;;;;;11.80;5.10;;;;;;;12.27;53.10;100658.04;131335;1248;107259;-72
2023/05/06 07:25:51;;;;;;;6.20;3.80;;;;;;;12.22;52.88;100658.11;131229;1252;107516;-71
2023/05/06 07:28:57;;;;;;;8.40;4.80;;;;;;;12.19;52.86;100654.98;131201;1253;107499;-71
2023/05/06 07:32:02;;;;;;;8.90;4.90;;;;;;;12.22;52.89;100651.36;131330;1247;107652;-72
2023/05/06 07:35:09;;;;;;;6.50;3.70;;;;;;;12.26;52.50;100653.98;131299;1253;107478;-75
2023/05/06 07:38:15;;;;;;;10.20;5.00;;;;;;;12.30;52.37;100658.70;131424;1247;107528;-75
2023/05/06 07:41:20;;;;;;;10.30;5.70;;;;;;;12.37;52.58;100655.92;131432;1253;107443;-72
2023/05/06 07:44:26;;;;;;;14.40;5.40;;;;;;;12.45;52.50;100659.40;131414;1248;107381;-75
2023/05/06 07:47:33;;;;;;;9.10;3.30;;;;;;;12.54;52.70;100660.55;131551;1248;107536;-75
2023/05/06 07:50:39;;;;;;;8.80;4.50;;;;;;;12.63;52.30;100657.92;131476;1248;107411;-74
2023/05/06 07:53:44;;;;;;;7.70;3.60;;;;;;;12.67;52.17;100660.58;131381;1247;107252;-73
2023/05/06 07:56:50;;;;;;;5.90;3.10;;;;;;;12.66;52.12;100664.95;131277;1248;106504;-72
2023/05/06 07:59:57;;;;;;;6.10;2.90;;;;;;;12.61;51.72;100664.16;131371;1253;107281;-72
2023/05/06 08:03:02;;;;;;;6.90;4.10;;;;;;;12.57;51.81;100657.94;131451;1263;107651;-73
2023/05/06 08:06:08;;;;;;;9.60;3.40;;;;;;;12.57;51.68;100664.02;131335;1247;106384;-73
2023/05/06 08:09:14;;;;;;;12.70;5.90;;;;;;;12.51;51.42;100668.16;131323;1253;107495;-74
2023/05/06 08:12:19;;;;;;;8.00;4.90;;;;;;;12.44;51.41;100666.64;131448;1253;107362;-73
2023/05/06 08:15:25;;;;;;;7.40;3.00;;;;;;;12.41;51.81;100666.52;131397;1247;107506;-73
2023/05/06 08:18:30;;;;;;;11.10;5.80;;;;;;;12.42;51.54;100660.96;131155;1247;107242;-73
2023/05/06 08:21:35;;;;;;;8.40;5.00;;;;;;;12.38;51.44;100660.08;131226;1254;109265;-73
2023/05/06 08:24:41;;;;;;;6.50;3.90;;;;;;;12.32;51.44;100652.96;131401;1250;107537;-75
2023/05/06 08:27:46;;;;;;;4.80;2.90;;;;;;;12.26;51.28;100654.55;131515;1250;107471;-73
2023/05/06 08:30:52;;;;;;;5.30;3.10;;;;;;;12.21;51.55;100656.25;131616;1247;107200;-76
2023/05/06 08:33:57;;;;;;;5.80;2.50;;;;;;;12.19;51.52;100659.70;131431;1261;107510;-74
2023/05/06 08:37:03;;;;;;;6.40;4.10;;;;;;;12.16;51.49;100653.51;131642;1251;107300;-74
2023/05/06 08:40:18;;;;;;;7.00;3.20;;;;;;;12.17;51.30;100655.04;131335;1253;109368;-74
2023/05/06 08:43:30;;;;;;;8.40;2.90;;;;;;;12.18;51.29;100657.94;131485;1250;107420;-74
2023/05/06 08:46:36;;;;;;;5.10;2.50;;;;;;;12.21;51.40;100657.35;131531;1248;107226;-77
2023/05/06 08:49:42;;;;;;;5.20;2.50;;;;;;;12.24;51.12;100659.86;131973;1250;107500;-75
2023/05/06 08:52:49;;;;;;;5.20;2.40;;;;;;;12.27;51.06;100659.02;131648;1250;105664;-75
2023/05/06 08:55:56;;;;;;;4.60;2.70;;;;;;;12.31;50.81;100659.58;131710;1248;107456;-75
2023/05/06 08:59:02;;;;;;;5.40;2.50;;;;;;;12.31;50.90;100657.73;131819;1250;107590;-75
2023/05/06 09:02:09;;;;;;;9.30;3.20;;;;;;;12.35;50.98;100654.48;131373;1248;107577;-75
2023/05/06 09:05:15;;;;;;;6.40;3.10;;;;;;;12.35;50.84;100653.46;131756;1250;107415;-75
2023/05/06 09:08:20;;;;;;;9.90;4.20;;;;;;;12.36;50.81;100654.06;131808;1248;107215;-76
2023/05/06 09:11:28;;;;;;;6.60;4.00;;;;;;;12.33;50.47;100648.83;131755;1247;107494;-75
2023/05/06 09:14:33;;;;;;;6.00;4.20;;;;;;;12.26;50.77;100644.84;131467;1247;107417;-75
2023/05/06 09:17:39;;;;;;;4.80;3.40;;;;;;;12.27;51.01;100640.45;131562;1248;107533;-73
2023/05/06 09:20:46;;;;;;;4.90;3.20;;;;;;;12.26;50.73;100641.64;131520;1248;107246;-73
2023/05/06 09:23:52;;;;;;;5.90;2.90;;;;;;;12.23;50.76;100640.38;131530;1250;107505;-73
2023/05/06 09:26:57;;;;;;;8.80;3.10;;;;;;;12.19;50.76;100638.77;131471;1250;107319;-73
2023/05/06 09:30:06;;;;;;;9.00;2.70;;;;;;;12.17;50.84;100638.11;131500;1248;107366;-73
2023/05/06 09:33:12;;;;;;;5.70;3.10;;;;;;;12.12;50.51;100631.23;131466;1253;107393;-73
2023/05/06 09:36:18;;;;;;;5.20;2.40;;;;;;;12.10;50.93;100627.36;131519;1251;107501;-75
2023/05/06 09:39:26;;;;;;;6.80;2.30;;;;;;;12.09;51.25;100626.11;131522;1250;107517;-71
2023/05/06 09:42:32;;;;;;;4.90;2.50;;;;;;;12.05;50.91;100624.02;131648;1246;106203;-72
2023/05/06 09:45:39;;;;;;;6.40;2.60;;;;;;;12.03;51.24;100620.64;131519;1248;107306;-73
2023/05/06 09:48:46;;;;;;;8.10;4.00;;;;;;;12.05;51.03;100626.25;131532;1248;107459;-71
2023/05/06 09:51:53;;;;;;;6.60;3.70;;;;;;;12.05;51.01;100620.93;131687;1260;107487;-71
2023/05/06 09:54:59;;;;;;;8.20;3.70;;;;;;;12.06;51.14;100625.27;131660;1250;107511;-72
2023/05/06 09:58:07;;;;;;;5.00;3.30;;;;;;;12.06;50.98;100625.96;131703;1250;107508;-72
2023/05/06 10:01:14;;;;;;;9.70;4.30;;;;;;;12.03;50.98;100624.50;131647;1248;107246;-73
2023/05/06 10:04:22;;;;;;;11.60;5.00;;;;;;;12.04;51.03;100623.13;131811;1250;106829;-73
2023/05/06 10:07:29;;;;;;;10.00;4.60;;;;;;;12.07;51.12;100616.50;131636;1248;106251;-76
2023/05/06 10:10:37;;;;;;;9.70;4.20;;;;;;;12.06;50.79;100615.36;131730;1250;107440;-73
2023/05/06 10:13:44;;;;;;;10.40;5.20;;;;;;;12.07;50.83;100615.73;131793;1250;108083;-72
2023/05/06 10:16:51;;;;;;;10.10;4.10;;;;;;;12.09;50.77;100603.44;131686;1248;107409;-72
2023/05/06 10:20:00;;;;;;;7.90;3.80;;;;;;;12.11;50.78;100591.63;131665;1251;107516;-72
2023/05/06 10:23:15;;;;;;;6.20;3.10;;;;;;;12.12;50.80;100586.48;131835;1250;108561;-72
2023/05/06 10:26:22;;;;;;;5.80;3.00;;;;;;;12.11;51.14;100590.22;131688;1250;107513;-73
2023/05/06 10:29:29;;;;;;;5.90;3.10;;;;;;;12.08;51.11;100589.12;131672;1250;107504;-72
2023/05/06 10:32:35;;;;;;;6.70;3.10;;;;;;;12.06;51.45;100587.34;131568;1251;107373;-72
2023/05/06 10:35:49;;;;;;;5.90;3.00;;;;;;;12.03;51.68;100586.38;131793;1248;107494;-71
2023/05/06 10:38:56;;;;;;;5.70;3.20;;;;;;;11.97;51.92;100585.53;132953;1248;107530;-73
2023/05/06 10:42:05;;;;;;;7.20;3.40;;;;;;;11.91;52.05;100571.36;132020;1250;107342;-74
2023/05/06 10:45:14;;;;;;;4.90;2.60;;;;;;;11.84;52.13;100571.64;131832;1248;108295;-74
2023/05/06 10:48:20;;;;;;;7.50;3.60;;;;;;;11.75;52.34;100570.86;131861;1247;107427;-74
2023/05/06 10:51:27;;;;;;;7.40;3.00;;;;;;;11.72;52.61;100563.72;131684;1248;107540;-75
2023/05/06 10:54:46;;;;;;;36.40;24.70;;;;;;;11.67;52.91;100561.23;131701;1250;107515;-74
2023/05/06 10:57:56;;;;;;;16.30;10.30;;;;;;;11.60;53.30;100559.05;131649;1250;107307;-75
2023/05/06 11:01:01;;;;;;;10.60;5.70;;;;;;;11.55;53.63;100559.05;131776;1251;107519;-74
2023/05/06 11:04:09;;;;;;;8.90;4.50;;;;;;;11.48;54.13;100557.06;131446;1253;107970;-72
2023/05/06 11:07:38;;;;;;;10.20;5.80;;;;;;;11.41;54.36;100558.80;131487;1253;106513;-73
2023/05/06 11:10:53;;;;;;;14.50;8.80;;;;;;;11.34;54.37;100565.73;131024;1253;108467;-72
2023/05/06 11:14:24;;;;;;;13.50;9.80;;;;;;;11.29;54.91;100577.91;131097;1248;161173;-73
2023/05/06 11:21:31;;;;;;;11.80;6.20;;;;;;;11.26;55.06;100591.41;131417;1250;108987;-72
2023/05/06 11:24:43;;;;;;;10.20;5.00;;;;;;;11.28;55.46;100592.48;131503;1250;107512;-72
2023/05/06 11:27:49;;;;;;;6.60;4.40;;;;;;;11.26;55.54;100585.35;131579;1248;107442;-72
2023/05/06 11:30:56;;;;;;;7.30;4.70;;;;;;;11.27;55.71;100588.69;131532;1257;107653;-72
2023/05/06 11:34:07;;;;;;;9.50;4.90;;;;;;;11.31;56.19;100582.77;131559;1250;107522;-73
2023/05/06 11:37:13;;;;;;;10.00;4.90;;;;;;;11.37;56.23;100580.70;131527;1250;106094;-73
2023/05/06 11:40:18;;;;;;;6.30;4.30;;;;;;;11.44;56.79;100573.15;131444;1250;107543;-72
2023/05/06 11:43:24;;;;;;;7.70;4.40;;;;;;;11.48;57.06;100568.63;131693;1250;108201;-73
2023/05/06 11:46:32;;;;;;;7.90;4.30;;;;;;;11.54;56.95;100562.70;131494;1260;106728;-74
2023/05/06 11:49:42;;;;;;;7.50;4.30;;;;;;;11.55;57.28;100559.39;131512;1251;106543;-73
2023/05/06 11:52:48;;;;;;;8.10;4.60;;;;;;;11.47;57.70;100556.48;131469;1250;107395;-72
2023/05/06 11:55:55;;;;;;;11.30;6.10;;;;;;;11.39;57.72;100555.42;131344;1248;107460;-72
2023/05/06 11:59:00;;;;;;;12.50;7.60;;;;;;;11.42;58.02;100571.20;131486;1251;107459;-73
2023/05/06 12:02:08;;;;;;;14.10;9.00;;;;;;;11.42;58.13;100588.98;131525;1254;107192;-73
2023/05/06 12:05:14;;;;;;;15.70;9.70;;;;;;;11.39;58.50;100595.83;131527;1250;107422;-72
2023/05/06 12:08:22;;;;;;;15.80;10.70;;;;;;;11.39;58.61;100591.55;131517;1250;107535;-73
2023/05/06 12:11:28;;;;;;;15.00;10.10;;;;;;;11.40;58.65;100583.45;131524;1250;107485;-73
2023/05/06 12:14:35;;;;;;;9.90;6.70;;;;;;;11.39;58.52;100581.73;131520;1251;107641;-72
2023/05/06 12:17:41;;;;;;;9.50;5.60;;;;;;;11.38;58.77;100572.59;131536;1250;107423;-72
2023/05/06 12:20:46;;;;;;;9.60;6.60;;;;;;;11.37;58.82;100562.94;132457;1247;106724;-73
2023/05/06 12:23:56;;;;;;;7.50;5.30;;;;;;;11.36;59.21;100557.81;131667;1250;107468;-73
2023/05/06 12:27:01;;;;;;;7.40;4.60;;;;;;;11.34;59.11;100558.19;131837;1250;107417;-72
2023/05/06 12:30:09;;;;;;;8.90;4.70;;;;;;;11.30;59.10;100556.65;131714;1249;106627;-73
2023/05/06 12:33:15;;;;;;;7.70;4.40;;;;;;;11.26;58.85;100562.20;131839;1251;107304;-72
2023/05/06 12:36:21;;;;;;;9.60;6.10;;;;;;;11.25;59.23;100565.77;131832;1250;106688;-73
2023/05/06 12:39:36;;;;;;;17.70;10.80;;;;;;;11.25;59.25;100564.24;131689;1251;107460;-72
2023/05/06 12:42:41;;;;;;;9.80;6.00;;;;;;;11.28;59.35;100568.08;131764;1250;107565;-71
2023/05/06 12:46:04;;;;;;;7.80;5.10;;;;;;;11.28;59.13;100567.34;132000;1248;107490;-72
2023/05/06 12:49:09;;;;;;;9.70;5.00;;;;;;;11.30;58.88;100568.63;131830;1250;107512;-72
2023/05/06 12:52:15;;;;;;;10.70;6.50;;;;;;;11.32;59.01;100565.74;131909;1251;107193;-73
2023/05/06 12:55:24;;;;;;;9.70;4.90;;;;;;;11.31;59.20;100562.27;131914;1250;107501;-72
2023/05/06 12:58:36;;;;;;;7.60;4.00;;;;;;;11.28;58.88;100554.74;131971;1251;107586;-72
2023/05/06 13:01:41;;;;;;;8.10;4.40;;;;;;;11.26;58.87;100550.61;131660;1250;105863;-72
2023/05/06 13:04:47;;;;;;;5.70;3.70;;;;;;;11.22;58.81;100556.61;131563;1250;106010;-71
2023/05/06 13:07:52;;;;;;;7.80;4.60;;;;;;;11.14;58.87;100562.55;131517;1250;107501;-72
2023/05/06 13:11:00;;;;;;;12.20;5.70;;;;;;;11.10;59.09;100570.02;131545;1248;107243;-73
2023/05/06 13:14:06;;;;;;;9.30;5.20;;;;;;;11.07;59.24;100571.95;131528;1250;106763;-71
2023/05/06 13:17:13;;;;;;;8.10;5.00;;;;;;;11.06;59.54;100570.42;131544;1251;105975;-74
2023/05/06 13:20:19;;;;;;;8.30;5.20;;;;;;;10.99;59.57;100566.59;131503;1250;107550;-73
2023/05/06 13:23:24;;;;;;;9.00;4.30;;;;;;;10.96;59.67;100563.46;131522;1250;105492;-71
2023/05/06 13:26:30;;;;;;;10.30;4.70;;;;;;;10.90;59.52;100560.35;131554;1254;107214;-73
2023/05/06 13:29:38;;;;;;;10.10;4.60;;;;;;;10.83;59.82;100553.35;131772;1248;107346;-73
2023/05/06 13:32:45;;;;;;;9.70;5.10;;;;;;;10.73;59.77;100554.45;131442;1253;107506;-74
2023/05/06 13:35:50;;;;;;;10.30;6.20;;;;;;;10.64;60.07;100548.80;131289;1254;108097;-72
2023/05/06 13:38:56;;;;;;;9.00;5.60;;;;;;;10.56;60.28;100546.00;131253;1248;107391;-72
2023/05/06 13:42:02;;;;;;;9.20;5.20;;;;;;;10.50;60.55;100546.58;131349;1253;107485;-72
2023/05/06 13:45:10;;;;;;;9.30;5.10;;;;;;;10.46;60.52;100555.80;131419;1263;108124;-72
2023/05/06 13:48:17;;;;;;;17.10;8.70;;;;;;;10.42;60.85;100556.02;131365;1254;107353;-72
2023/05/06 13:51:26;;;;;;;12.00;8.10;;;;;;;10.38;60.74;100556.38;131522;1248;107237;-74
2023/05/06 13:54:31;;;;;;;8.00;5.10;;;;;;;10.36;60.98;100552.72;131310;1253;107499;-72
2023/05/06 13:57:37;;;;;;;12.30;8.00;;;;;;;10.31;61.07;100547.41;131476;1253;107237;-72
2023/05/06 14:00:42;;;;;;;16.30;10.30;;;;;;;10.30;61.32;100541.34;131478;1253;107925;-72
2023/05/06 14:03:48;;;;;;;8.70;5.60;;;;;;;10.26;61.72;100533.80;131415;1253;107508;-72
2023/05/06 14:06:54;;;;;;;14.40;7.70;;;;;;;10.19;62.12;100533.40;131380;1261;107538;-76
2023/05/06 14:10:00;;;;;;;12.30;6.50;;;;;;;10.15;62.14;100534.17;131389;1248;107365;-76
2023/05/06 14:13:25;;;;;;;20.60;10.80;;;;;;;10.12;62.32;100533.59;131818;1250;107882;-80
2023/05/06 14:16:33;;;;;;;13.50;8.20;;;;;;;10.07;63.14;100527.27;132910;1251;107543;-77